createdAt,value
2023-01-21T00:00:58.349Z,1.00
2023-01-21T00:03:26.458Z,1.00
2023-01-21T00:05:54.633Z,1.00
2023-01-21T00:08:22.653Z,1.00
2023-01-21T00:10:50.977Z,1.00
2023-01-21T00:13:20.359Z,1.00
2023-01-21T00:15:48.390Z,1.00
2023-01-21T00:18:16.578Z,1.00
2023-01-21T00:20:46.021Z,1.00
2023-01-21T00:23:14.058Z,1.00
2023-01-21T00:25:42.064Z,1.00
2023-01-21T00:28:10.103Z,1.00
2023-01-21T00:30:39.594Z,1.00
2023-01-21T00:33:07.563Z,1.00
2023-01-21T00:35:35.535Z,1.00
2023-01-21T00:38:03.556Z,99.90
2023-01-21T00:40:31.545Z,1.00
2023-01-21T00:42:59.546Z,99.90
2023-01-21T00:45:27.563Z,99.90
2023-01-21T00:47:57.014Z,99.90
2023-01-21T00:50:25.008Z,99.90
2023-01-21T00:52:53.996Z,99.90
2023-01-21T00:55:21.985Z,99.90
2023-01-21T00:57:50.690Z,99.90
2023-01-21T01:00:19.857Z,99.90
2023-01-21T01:02:48.002Z,99.90
2023-01-21T01:05:19.397Z,1.00
2023-01-21T01:07:47.643Z,1.00
2023-01-21T01:10:16.132Z,1.00
2023-01-21T01:12:44.453Z,1.00
2023-01-21T01:15:12.763Z,1.00
2023-01-21T01:17:40.812Z,1.00
2023-01-21T01:20:10.152Z,1.00
2023-01-21T01:22:39.539Z,1.00
2023-01-21T01:25:08.244Z,1.00
2023-01-21T01:27:36.515Z,1.00
2023-01-21T01:30:05.848Z,1.00
2023-01-21T01:32:33.867Z,1.00
2023-01-21T01:35:01.909Z,1.00
2023-01-21T01:37:30.014Z,1.00
2023-01-21T01:39:59.375Z,1.00
2023-01-21T01:42:27.352Z,1.00
2023-01-21T01:45:00.604Z,1.00
2023-01-21T01:47:33.547Z,1.00
2023-01-21T01:50:03.423Z,1.00
2023-01-21T01:52:31.936Z,1.00
2023-01-21T01:55:03.236Z,1.00
2023-01-21T01:57:37.148Z,1.00
2023-01-21T02:00:08.833Z,1.00
2023-01-21T02:02:38.503Z,1.00
2023-01-21T02:05:09.341Z,1.00
2023-01-21T02:07:40.504Z,1.00
2023-01-21T02:10:12.345Z,1.00
2023-01-21T02:12:44.008Z,1.00
2023-01-21T02:15:13.216Z,1.00
2023-01-21T02:17:52.335Z,1.00
2023-01-21T02:20:48.903Z,1.00
2023-01-21T02:23:21.670Z,1.00
2023-01-21T02:26:18.172Z,1.00
2023-01-21T02:29:12.876Z,1.00
2023-01-21T02:32:13.705Z,1.00
2023-01-21T02:34:49.825Z,1.00
2023-01-21T02:37:25.887Z,1.00
2023-01-21T02:40:10.841Z,1.00
2023-01-21T02:42:46.036Z,1.00
2023-01-21T02:45:25.082Z,1.00
2023-01-21T02:48:06.007Z,1.00
2023-01-21T02:50:37.775Z,1.00
2023-01-21T02:53:06.455Z,1.00
2023-01-21T02:55:38.086Z,1.00
2023-01-21T02:58:08.977Z,1.00
2023-01-21T03:00:56.828Z,1.00
2023-01-21T03:03:43.391Z,1.00
2023-01-21T03:06:50.095Z,1.00
2023-01-21T03:09:35.942Z,1.00
2023-01-21T03:12:18.722Z,1.00
2023-01-21T03:15:09.905Z,1.00
2023-01-21T03:17:43.289Z,1.00
2023-01-21T03:20:16.045Z,1.00
2023-01-21T03:22:45.369Z,1.00
2023-01-21T03:25:16.970Z,1.00
2023-01-21T03:27:47.556Z,1.00
2023-01-21T03:30:18.378Z,1.00
2023-01-21T03:32:50.342Z,1.00
2023-01-21T03:35:22.661Z,1.00
2023-01-21T03:37:55.015Z,1.00
2023-01-21T03:40:27.476Z,1.00
2023-01-21T03:42:56.630Z,1.00
2023-01-21T03:45:36.300Z,1.00
2023-01-21T03:48:11.791Z,1.00
2023-01-21T03:50:43.223Z,1.00
2023-01-21T03:53:12.154Z,1.00
2023-01-21T03:55:41.661Z,1.00
2023-01-21T03:58:09.707Z,1.00
2023-01-21T04:00:37.929Z,1.00
2023-01-21T04:03:05.941Z,1.00
2023-01-21T04:05:35.368Z,1.00
2023-01-21T04:08:03.478Z,1.00
2023-01-21T04:10:31.493Z,1.00
2023-01-21T04:13:00.887Z,1.00
2023-01-21T04:15:28.978Z,1.00
2023-01-21T04:17:56.979Z,1.00
2023-01-21T04:20:24.947Z,1.00
2023-01-21T04:22:53.034Z,1.00
2023-01-21T04:25:21.080Z,1.00
2023-01-21T04:27:49.048Z,1.00
2023-01-21T04:30:19.276Z,1.00
2023-01-21T04:32:47.527Z,1.00
2023-01-21T04:35:15.643Z,1.00
2023-01-21T04:37:43.775Z,1.00
2023-01-21T04:40:13.434Z,1.00
2023-01-21T04:42:43.077Z,1.00
2023-01-21T04:45:11.967Z,1.00
2023-01-21T04:47:43.544Z,1.00
2023-01-21T04:50:13.031Z,1.00
2023-01-21T04:52:41.568Z,1.00
2023-01-21T04:55:10.884Z,1.00
2023-01-21T04:57:39.157Z,1.00
2023-01-21T05:00:09.578Z,1.00
2023-01-21T05:02:37.685Z,1.00
2023-01-21T05:05:08.201Z,1.00
2023-01-21T05:07:36.664Z,1.00
2023-01-21T05:10:05.424Z,1.00
2023-01-21T05:12:33.463Z,1.00
2023-01-21T05:15:01.447Z,1.00
2023-01-21T05:17:29.433Z,1.00
2023-01-21T05:19:57.453Z,1.00
2023-01-21T05:22:26.831Z,1.00
2023-01-21T05:24:54.889Z,1.00
2023-01-21T05:27:22.934Z,1.00
2023-01-21T05:29:51.076Z,1.00
2023-01-21T05:32:19.134Z,1.00
2023-01-21T05:34:47.157Z,1.00
2023-01-21T05:37:15.300Z,1.00
2023-01-21T05:39:44.712Z,1.00
2023-01-21T05:42:12.781Z,1.00
2023-01-21T05:44:40.764Z,1.00
2023-01-21T05:47:08.850Z,1.00
2023-01-21T05:49:37.207Z,1.00
2023-01-21T05:52:05.536Z,1.00
2023-01-21T05:54:33.474Z,1.00
2023-01-21T05:57:02.864Z,1.00
2023-01-21T05:59:30.885Z,1.00
2023-01-21T06:01:58.907Z,1.00
2023-01-21T06:04:30.622Z,1.00
2023-01-21T06:06:58.685Z,1.00
2023-01-21T06:09:26.673Z,1.00
2023-01-21T06:11:54.678Z,1.00
2023-01-21T06:14:24.677Z,1.00
2023-01-21T06:16:52.732Z,1.00
2023-01-21T06:19:20.761Z,1.00
2023-01-21T06:21:48.872Z,1.00
2023-01-21T06:24:16.959Z,1.00
2023-01-21T06:26:45.200Z,1.00
2023-01-21T06:29:13.269Z,1.00
2023-01-21T06:31:42.732Z,1.00
2023-01-21T06:34:12.593Z,1.00
2023-01-21T06:36:42.730Z,1.00
2023-01-21T06:39:11.054Z,1.00
2023-01-21T06:41:39.138Z,1.00
2023-01-21T06:44:07.632Z,1.00
2023-01-21T06:46:35.714Z,1.00
2023-01-21T06:49:05.297Z,1.00
2023-01-21T06:51:33.255Z,1.00
2023-01-21T06:54:01.234Z,1.00
2023-01-21T06:56:29.229Z,1.00
2023-01-21T06:58:57.201Z,1.00
2023-01-21T07:01:25.275Z,1.00
2023-01-21T07:03:53.341Z,1.00
2023-01-21T07:06:23.131Z,1.00
2023-01-21T07:08:51.101Z,1.00
2023-01-21T07:11:19.310Z,1.00
2023-01-21T07:13:47.284Z,1.00
2023-01-21T07:16:15.308Z,1.00
2023-01-21T07:18:43.366Z,1.00
2023-01-21T07:21:11.348Z,1.00
2023-01-21T07:23:40.689Z,1.00
2023-01-21T07:26:08.717Z,1.00
2023-01-21T07:28:36.719Z,1.00
2023-01-21T07:31:05.408Z,1.00
2023-01-21T07:33:33.439Z,1.00
2023-01-21T07:36:01.408Z,1.00
2023-01-21T07:38:29.410Z,1.00
2023-01-21T07:40:58.989Z,1.00
2023-01-21T07:43:28.107Z,1.00
2023-01-21T07:45:59.875Z,1.00
2023-01-21T07:48:28.045Z,1.00
2023-01-21T07:50:58.609Z,1.00
2023-01-21T07:53:27.105Z,1.00
2023-01-21T07:55:55.711Z,1.00
2023-01-21T07:58:25.081Z,1.00
2023-01-21T08:00:53.148Z,1.00
2023-01-21T08:03:23.225Z,1.00
2023-01-21T08:05:52.205Z,1.00
2023-01-21T08:08:20.316Z,1.00
2023-01-21T08:10:52.745Z,1.00
2023-01-21T08:13:21.035Z,1.00
2023-01-21T08:15:53.100Z,1.00
2023-01-21T08:18:23.119Z,1.00
2023-01-21T08:20:55.537Z,1.00
2023-01-21T08:23:23.536Z,1.00
2023-01-21T08:25:51.704Z,1.00
2023-01-21T08:28:19.824Z,1.00
2023-01-21T08:30:47.828Z,1.00
2023-01-21T08:33:17.177Z,1.00
2023-01-21T08:35:45.226Z,1.00
2023-01-21T08:38:13.246Z,1.00
2023-01-21T08:40:41.279Z,1.00
2023-01-21T08:43:10.420Z,1.00
2023-01-21T08:45:38.436Z,1.00
2023-01-21T08:48:06.948Z,1.00
2023-01-21T08:50:36.464Z,1.00
2023-01-21T08:53:04.420Z,1.00
2023-01-21T08:55:32.416Z,1.00
2023-01-21T08:58:00.467Z,1.00
2023-01-21T09:00:28.786Z,1.00
2023-01-21T09:02:56.945Z,1.00
2023-01-21T09:05:24.988Z,1.00
2023-01-21T09:07:55.685Z,1.00
2023-01-21T09:10:44.301Z,1.00
2023-01-21T09:13:12.480Z,1.00
2023-01-21T09:15:40.966Z,1.00
2023-01-21T09:18:09.420Z,1.00
2023-01-21T09:20:37.576Z,1.00
2023-01-21T09:23:24.285Z,1.00
2023-01-21T09:25:53.342Z,1.00
2023-01-21T09:28:23.119Z,1.00
2023-01-21T09:30:51.264Z,1.00
2023-01-21T09:33:19.376Z,1.00
2023-01-21T09:35:54.356Z,1.00
2023-01-21T09:38:23.932Z,1.00
2023-01-21T09:40:52.503Z,1.00
2023-01-21T09:43:25.135Z,1.00
2023-01-21T09:45:57.370Z,1.00
2023-01-21T09:48:29.222Z,1.00
2023-01-21T09:51:01.222Z,1.00
2023-01-21T09:53:37.548Z,1.00
2023-01-21T09:56:11.935Z,1.00
2023-01-21T09:58:45.199Z,1.00
2023-01-21T10:01:16.776Z,1.00
2023-01-21T10:03:49.749Z,1.00
2023-01-21T10:06:23.552Z,1.00
2023-01-21T10:09:25.551Z,1.00
2023-01-21T10:12:09.422Z,1.00
2023-01-21T10:15:15.554Z,1.00
2023-01-21T10:17:55.407Z,1.00
2023-01-21T10:20:27.805Z,1.00
2023-01-21T10:22:59.470Z,1.00
2023-01-21T10:25:32.067Z,1.00
2023-01-21T10:28:05.377Z,1.00
2023-01-21T10:30:37.694Z,1.00
2023-01-21T10:33:07.212Z,1.00
2023-01-21T10:35:47.663Z,1.00
2023-01-21T10:38:25.851Z,1.00
2023-01-21T10:41:03.134Z,1.00
2023-01-21T10:43:37.618Z,1.00
2023-01-21T10:46:15.472Z,1.00
2023-01-21T10:48:51.610Z,1.00
2023-01-21T10:51:23.796Z,1.00
2023-01-21T10:53:57.604Z,8.10
2023-01-21T10:56:37.943Z,12.10
2023-01-21T10:59:09.091Z,15.90
2023-01-21T11:01:40.732Z,22.10
2023-01-21T11:04:15.432Z,27.50
2023-01-21T11:06:45.144Z,48.40
2023-01-21T11:09:15.465Z,31.40
2023-01-21T11:11:46.422Z,29.90
2023-01-21T11:14:14.835Z,28.50
2023-01-21T11:16:44.742Z,27.40
2023-01-21T11:19:15.204Z,24.00
2023-01-21T11:21:57.727Z,24.40
2023-01-21T11:24:26.408Z,24.10
2023-01-21T11:26:58.064Z,25.20
2023-01-21T11:29:27.886Z,25.20
2023-01-21T11:32:04.381Z,22.20
2023-01-21T11:34:32.800Z,16.00
2023-01-21T11:37:02.708Z,11.30
2023-01-21T11:39:33.548Z,4.90
2023-01-21T11:42:08.728Z,1.80
2023-01-21T11:44:37.535Z,1.00
2023-01-21T11:47:36.548Z,1.00
2023-01-21T11:50:17.134Z,1.00
2023-01-21T11:52:45.802Z,1.00
2023-01-21T11:55:23.378Z,1.00
2023-01-21T11:57:55.968Z,1.00
2023-01-21T12:00:27.162Z,1.00
2023-01-21T12:02:59.535Z,1.00
2023-01-21T12:05:32.623Z,1.00
2023-01-21T12:08:01.880Z,1.00
2023-01-21T12:10:32.954Z,1.00
2023-01-21T12:13:18.699Z,1.00
2023-01-21T12:16:11.134Z,1.00
2023-01-21T12:18:54.586Z,1.00
2023-01-21T12:21:31.993Z,1.00
2023-01-21T12:24:14.348Z,1.00
2023-01-21T12:26:46.497Z,1.00
2023-01-21T12:29:31.268Z,1.00
2023-01-21T12:32:04.999Z,1.00
2023-01-21T12:34:38.193Z,1.00
2023-01-21T12:37:13.467Z,1.00
2023-01-21T12:39:43.416Z,1.00
2023-01-21T12:42:16.853Z,1.00
2023-01-21T12:44:51.662Z,1.00
2023-01-21T12:47:32.241Z,1.00
2023-01-21T12:50:10.744Z,1.00
2023-01-21T12:52:45.728Z,1.00
2023-01-21T12:55:20.854Z,1.00
2023-01-21T12:57:56.936Z,1.00
2023-01-21T13:00:28.392Z,1.00
2023-01-21T13:03:05.901Z,1.00
2023-01-21T13:05:39.249Z,1.00
2023-01-21T13:08:31.019Z,1.00
2023-01-21T13:11:04.500Z,1.00
2023-01-21T13:13:36.074Z,1.00
2023-01-21T13:16:09.116Z,1.00
2023-01-21T13:18:39.954Z,1.00
2023-01-21T13:21:17.913Z,1.00
2023-01-21T13:23:49.046Z,1.00
2023-01-21T13:26:23.025Z,1.00
2023-01-21T13:28:59.067Z,1.00
2023-01-21T13:31:35.525Z,1.00
2023-01-21T13:34:08.700Z,1.00
2023-01-21T13:36:51.167Z,1.00
2023-01-21T13:39:24.608Z,1.00
2023-01-21T13:42:05.536Z,1.00
2023-01-21T13:45:05.412Z,1.00
2023-01-21T13:47:48.809Z,1.00
2023-01-21T13:50:29.532Z,1.00
2023-01-21T13:53:11.148Z,1.00
2023-01-21T13:55:47.539Z,1.00
2023-01-21T13:58:18.149Z,1.00
2023-01-21T14:00:52.322Z,99.90
2023-01-21T14:03:31.014Z,99.90
2023-01-21T14:06:06.084Z,99.90
2023-01-21T14:08:39.313Z,99.90
2023-01-21T14:11:13.594Z,99.90
2023-01-21T14:14:16.007Z,99.90
2023-01-21T14:17:05.672Z,99.90
2023-01-21T14:20:07.982Z,99.90
2023-01-21T14:22:50.318Z,99.90
2023-01-21T14:25:26.975Z,99.90
2023-01-21T14:28:06.863Z,99.90
2023-01-21T14:30:44.803Z,99.90
2023-01-21T14:33:17.944Z,99.90
2023-01-21T14:35:55.145Z,99.90
2023-01-21T14:38:34.061Z,99.90
2023-01-21T14:41:07.908Z,99.90
2023-01-21T14:43:53.568Z,99.90
2023-01-21T14:46:30.659Z,93.40
2023-01-21T14:49:04.283Z,73.10
2023-01-21T14:51:36.447Z,99.90
2023-01-21T14:54:10.345Z,99.90
2023-01-21T14:56:39.072Z,99.90
2023-01-21T14:59:09.805Z,83.20
2023-01-21T15:01:44.735Z,72.40
2023-01-21T15:04:26.572Z,23.30
2023-01-21T15:06:59.102Z,46.80
2023-01-21T15:09:31.244Z,26.40
2023-01-21T15:12:02.615Z,23.30
2023-01-21T15:14:33.878Z,22.60
2023-01-21T15:17:02.161Z,31.70
2023-01-21T15:19:33.846Z,50.50
2023-01-21T15:22:39.763Z,35.50
2023-01-21T15:25:36.967Z,20.20
2023-01-21T15:28:38.380Z,14.40
2023-01-21T15:31:09.442Z,8.30
2023-01-21T15:33:49.751Z,21.50
2023-01-21T15:36:24.487Z,43.20
2023-01-21T15:38:55.832Z,32.20
2023-01-21T15:41:28.987Z,53.90
2023-01-21T15:44:09.692Z,62.50
2023-01-21T15:46:46.909Z,74.00
2023-01-21T15:49:34.930Z,90.90
2023-01-21T15:52:15.354Z,98.30
2023-01-21T15:54:54.249Z,94.60
2023-01-21T15:57:44.152Z,59.50
2023-01-21T16:00:29.823Z,57.90
2023-01-21T16:03:04.937Z,54.00
2023-01-21T16:05:43.439Z,61.90
2023-01-21T16:08:22.080Z,78.00
2023-01-21T16:11:03.252Z,73.60
2023-01-21T16:13:44.517Z,94.90
2023-01-21T16:16:23.429Z,99.90
2023-01-21T16:18:54.996Z,99.90
2023-01-21T16:21:25.643Z,99.90
2023-01-21T16:23:56.758Z,99.90
2023-01-21T16:26:27.812Z,99.90
2023-01-21T16:28:56.116Z,99.90
2023-01-21T16:31:24.658Z,99.90
2023-01-21T16:33:53.698Z,99.90
2023-01-21T16:36:21.716Z,99.90
2023-01-21T16:38:49.869Z,99.90
2023-01-21T16:41:27.633Z,99.90
2023-01-21T16:43:59.432Z,99.90
2023-01-21T16:46:32.563Z,99.90
2023-01-21T16:49:04.700Z,99.90
2023-01-21T16:51:35.502Z,99.90
2023-01-21T16:54:26.381Z,99.90
2023-01-21T16:56:59.607Z,99.90
2023-01-21T16:59:30.190Z,99.90
2023-01-21T17:02:00.252Z,1.00
2023-01-21T17:04:30.137Z,1.00
2023-01-21T17:06:58.826Z,1.00
2023-01-21T17:09:30.659Z,1.00
2023-01-21T17:12:04.788Z,1.00
2023-01-21T17:14:34.276Z,1.00
2023-01-21T17:17:07.136Z,1.00
2023-01-21T17:19:37.674Z,1.00
2023-01-21T17:22:14.017Z,1.00
2023-01-21T17:24:47.001Z,1.00
2023-01-21T17:27:21.634Z,1.00
2023-01-21T17:29:49.881Z,1.00
2023-01-21T17:32:27.344Z,1.00
2023-01-21T17:35:11.544Z,1.00
2023-01-21T17:37:44.363Z,1.00
2023-01-21T17:40:26.436Z,1.00
2023-01-21T17:42:56.425Z,1.00
2023-01-21T17:45:30.133Z,1.00
2023-01-21T17:48:10.978Z,1.00
2023-01-21T17:50:45.608Z,1.00
2023-01-21T17:53:21.349Z,1.00
2023-01-21T17:55:58.782Z,1.00
2023-01-21T17:58:48.512Z,1.00
2023-01-21T18:01:17.450Z,1.00
2023-01-21T18:03:45.634Z,1.00
2023-01-21T18:06:18.988Z,1.00
2023-01-21T18:08:47.138Z,1.00
2023-01-21T18:11:16.800Z,1.00
2023-01-21T18:13:46.202Z,1.00
2023-01-21T18:16:14.275Z,1.00
2023-01-21T18:18:42.628Z,1.00
2023-01-21T18:21:19.954Z,1.00
2023-01-21T18:23:48.633Z,1.00
2023-01-21T18:26:23.935Z,1.00
2023-01-21T18:28:53.492Z,1.00
2023-01-21T18:31:22.695Z,1.00
2023-01-21T18:33:50.899Z,1.00
2023-01-21T18:36:18.875Z,1.00
2023-01-21T18:38:46.852Z,1.00
2023-01-21T18:41:14.846Z,1.00
2023-01-21T18:43:42.902Z,1.00
2023-01-21T18:46:14.034Z,1.00
2023-01-21T18:48:42.996Z,1.00
2023-01-21T18:51:11.599Z,1.00
2023-01-21T18:53:39.813Z,1.00
2023-01-21T18:56:13.716Z,1.00
2023-01-21T18:58:41.842Z,1.00
2023-01-21T19:01:21.953Z,1.00
2023-01-21T19:03:53.968Z,1.00
2023-01-21T19:06:24.773Z,1.00
2023-01-21T19:08:53.030Z,1.00
2023-01-21T19:11:21.128Z,1.00
2023-01-21T19:13:49.391Z,1.00
2023-01-21T19:16:19.519Z,1.00
2023-01-21T19:18:47.722Z,1.00
2023-01-21T19:21:17.051Z,1.00
2023-01-21T19:23:45.067Z,1.00
2023-01-21T19:26:14.883Z,1.00
2023-01-21T19:28:43.282Z,1.00
2023-01-21T19:31:11.334Z,1.00
2023-01-21T19:33:41.934Z,1.00
2023-01-21T19:36:16.052Z,1.00
2023-01-21T19:38:49.600Z,1.00
2023-01-21T19:41:17.607Z,1.00
2023-01-21T19:43:46.110Z,1.00
2023-01-21T19:46:14.176Z,1.00
2023-01-21T19:48:42.621Z,1.00
2023-01-21T19:51:10.732Z,1.00
2023-01-21T19:53:38.751Z,1.00
2023-01-21T19:56:11.203Z,1.00
2023-01-21T19:58:42.137Z,1.00
2023-01-21T20:01:10.204Z,1.00
2023-01-21T20:03:40.064Z,1.00
2023-01-21T20:06:13.790Z,1.00
2023-01-21T20:08:42.120Z,1.00
2023-01-21T20:11:11.736Z,1.00
2023-01-21T20:13:39.794Z,1.00
2023-01-21T20:16:15.782Z,1.00
2023-01-21T20:18:46.136Z,1.00
2023-01-21T20:21:14.335Z,1.00
2023-01-21T20:23:43.499Z,1.00
2023-01-21T20:26:18.621Z,1.00
2023-01-21T20:28:51.384Z,1.00
2023-01-21T20:31:19.991Z,1.00
2023-01-21T20:33:48.030Z,1.00
2023-01-21T20:36:20.493Z,1.00
2023-01-21T20:38:48.532Z,1.00
2023-01-21T20:41:18.401Z,1.00
2023-01-21T20:43:46.509Z,1.00
2023-01-21T20:46:18.157Z,1.00
2023-01-21T20:48:46.230Z,1.00
2023-01-21T20:51:14.348Z,1.00
2023-01-21T20:53:44.811Z,1.00
2023-01-21T20:56:21.935Z,1.00
2023-01-21T20:58:50.427Z,1.00
2023-01-21T21:01:20.674Z,1.00
2023-01-21T21:03:49.256Z,1.00
2023-01-21T21:06:19.165Z,1.00
2023-01-21T21:08:47.742Z,1.00
2023-01-21T21:11:16.427Z,1.00
2023-01-21T21:13:46.959Z,1.00
2023-01-21T21:16:19.813Z,1.00
2023-01-21T21:18:48.564Z,1.00
2023-01-21T21:21:17.067Z,1.00
2023-01-21T21:23:46.782Z,1.00
2023-01-21T21:26:22.147Z,1.00
2023-01-21T21:28:55.110Z,1.00
2023-01-21T21:31:24.106Z,1.00
2023-01-21T21:33:52.302Z,1.00
2023-01-21T21:36:23.172Z,1.00
2023-01-21T21:38:52.078Z,1.00
2023-01-21T21:41:39.339Z,1.00
2023-01-21T21:44:10.144Z,1.00
2023-01-21T21:46:56.286Z,1.00
2023-01-21T21:49:24.586Z,1.00
2023-01-21T21:51:52.602Z,1.00
2023-01-21T21:54:20.811Z,1.00
2023-01-21T21:56:48.889Z,1.00
2023-01-21T21:59:18.291Z,1.00
2023-01-21T22:01:46.318Z,1.00
2023-01-21T22:04:14.377Z,1.00
2023-01-21T22:06:42.429Z,1.00
2023-01-21T22:09:10.671Z,1.00
2023-01-21T22:11:38.860Z,1.00
2023-01-21T22:14:06.891Z,1.00
2023-01-21T22:16:36.434Z,1.00
2023-01-21T22:19:04.492Z,1.00
2023-01-21T22:21:34.542Z,1.00
2023-01-21T22:24:02.985Z,1.00
2023-01-21T22:26:31.064Z,1.00
2023-01-21T22:28:59.267Z,1.00
2023-01-21T22:31:28.960Z,1.00
2023-01-21T22:33:59.621Z,1.00
2023-01-21T22:36:30.468Z,1.00
2023-01-21T22:38:58.668Z,1.00
2023-01-21T22:41:26.984Z,1.00
2023-01-21T22:43:55.633Z,1.00
2023-01-21T22:46:25.234Z,1.00
2023-01-21T22:48:54.964Z,1.00
2023-01-21T22:51:24.784Z,1.00
2023-01-21T22:53:54.015Z,1.00
2023-01-21T22:56:31.433Z,1.00
2023-01-21T22:59:08.217Z,1.00
2023-01-21T23:01:36.429Z,1.00
2023-01-21T23:04:04.644Z,1.00
2023-01-21T23:06:36.106Z,1.00
2023-01-21T23:09:06.746Z,1.00
2023-01-21T23:11:37.444Z,1.00
2023-01-21T23:14:05.656Z,1.00
2023-01-21T23:16:33.696Z,1.00
2023-01-21T23:19:01.714Z,1.00
2023-01-21T23:21:29.737Z,1.00
2023-01-21T23:23:59.141Z,1.00
2023-01-21T23:26:27.209Z,1.00
2023-01-21T23:28:56.579Z,1.00
2023-01-21T23:31:25.424Z,1.00
2023-01-21T23:33:55.720Z,1.00
2023-01-21T23:36:24.149Z,1.00
2023-01-21T23:38:52.235Z,1.00
2023-01-21T23:41:21.731Z,1.00
2023-01-21T23:43:49.791Z,1.00
2023-01-21T23:46:19.952Z,1.00
2023-01-21T23:48:48.366Z,1.00
2023-01-21T23:51:17.393Z,1.00
2023-01-21T23:53:45.570Z,1.00
2023-01-21T23:56:15.541Z,1.00
2023-01-21T23:58:45.027Z,1.00
